createdAt,value
2019-03-04T00:03:14.091Z,8.86
2019-03-04T00:07:18.280Z,8.84
2019-03-04T00:11:22.514Z,8.87
2019-03-04T00:15:26.755Z,8.85
2019-03-04T00:19:31.014Z,8.79
2019-03-04T00:23:35.240Z,8.78
2019-03-04T00:27:39.941Z,8.81
2019-03-04T00:31:44.510Z,8.83
2019-03-04T00:35:48.690Z,8.81
2019-03-04T00:39:52.932Z,8.85
2019-03-04T00:43:57.112Z,8.80
2019-03-04T00:48:02.163Z,8.76
2019-03-04T00:52:06.493Z,8.76
2019-03-04T00:56:11.999Z,8.75
2019-03-04T01:00:19.315Z,8.74
2019-03-04T01:04:26.417Z,8.77
2019-03-04T01:08:31.540Z,8.77
2019-03-04T01:12:35.983Z,8.73
2019-03-04T01:16:40.227Z,8.67
2019-03-04T01:20:44.466Z,8.62
2019-03-04T01:24:48.651Z,8.61
2019-03-04T01:28:54.833Z,8.62
2019-03-04T01:32:59.167Z,8.65
2019-03-04T01:37:03.782Z,8.67
2019-03-04T01:41:08.548Z,8.69
2019-03-04T01:45:14.384Z,8.69
2019-03-04T01:49:20.114Z,8.70
2019-03-04T01:53:26.591Z,8.65
2019-03-04T01:57:31.151Z,8.55
2019-03-04T02:05:38.369Z,8.46
2019-03-04T02:09:42.942Z,8.47
2019-03-04T02:13:47.215Z,8.46
2019-03-04T02:17:51.405Z,8.45
2019-03-04T02:21:55.649Z,8.45
2019-03-04T02:26:18.646Z,8.46
2019-03-04T02:30:26.357Z,8.44
2019-03-04T02:34:31.950Z,8.36
2019-03-04T02:38:37.493Z,8.30
2019-03-04T02:42:42.367Z,8.26
2019-03-04T02:46:46.592Z,8.19
2019-03-04T02:50:50.772Z,8.22
2019-03-04T02:54:55.309Z,8.23
2019-03-04T02:58:59.533Z,8.21
2019-03-04T03:03:03.858Z,8.22
2019-03-04T03:07:08.079Z,8.28
2019-03-04T03:11:13.268Z,8.30
2019-03-04T03:19:21.165Z,8.27
2019-03-04T03:23:26.191Z,8.27
2019-03-04T03:27:31.382Z,8.29
2019-03-04T03:31:36.824Z,8.29
2019-03-04T03:35:45.270Z,8.26
2019-03-04T03:39:49.460Z,8.27
2019-03-04T03:43:53.684Z,8.21
2019-03-04T03:47:57.916Z,8.17
2019-03-04T03:52:02.135Z,8.15
2019-03-04T03:56:06.379Z,8.14
2019-03-04T04:00:14.086Z,8.11
2019-03-04T04:04:18.332Z,8.11
2019-03-04T04:08:22.590Z,8.14
2019-03-04T04:12:26.837Z,8.14
2019-03-04T04:16:31.057Z,8.11
2019-03-04T04:20:35.291Z,8.13
2019-03-04T04:24:39.870Z,8.11
2019-03-04T04:28:44.401Z,8.13
2019-03-04T04:32:48.632Z,8.10
2019-03-04T04:36:54.407Z,8.08
2019-03-04T04:40:59.886Z,8.06
2019-03-04T04:45:04.738Z,8.06
2019-03-04T04:49:08.985Z,8.06
2019-03-04T04:53:13.179Z,8.04
2019-03-04T04:57:21.691Z,8.03
2019-03-04T05:01:26.051Z,7.99
2019-03-04T05:05:30.655Z,7.94
2019-03-04T05:09:35.052Z,7.95
2019-03-04T05:13:39.390Z,7.91
2019-03-04T05:17:43.651Z,7.86
2019-03-04T05:25:51.357Z,7.78
2019-03-04T05:29:55.728Z,7.78
2019-03-04T05:34:00.358Z,7.72
2019-03-04T05:38:04.597Z,7.71
2019-03-04T05:42:09.360Z,7.73
2019-03-04T05:46:13.878Z,7.74
2019-03-04T05:50:19.064Z,7.75
2019-03-04T05:54:24.103Z,7.71
2019-03-04T05:58:29.427Z,7.71
2019-03-04T06:02:33.606Z,7.71
2019-03-04T06:06:56.306Z,7.58
2019-03-04T06:11:02.788Z,7.51
2019-03-04T06:15:11.263Z,7.48
2019-03-04T06:19:15.449Z,7.44
2019-03-04T06:23:19.696Z,7.48
2019-03-04T06:27:24.038Z,7.54
2019-03-04T06:31:28.258Z,7.57
2019-03-04T06:35:34.384Z,7.56
2019-03-04T06:39:38.628Z,7.58
2019-03-04T06:43:44.226Z,7.63
2019-03-04T06:47:50.168Z,7.64
2019-03-04T06:51:55.671Z,7.69
2019-03-04T06:56:07.140Z,7.79
2019-03-04T07:00:52.990Z,7.88
2019-03-04T07:05:23.243Z,7.97
2019-03-04T07:09:27.558Z,7.98
2019-03-04T07:13:31.930Z,8.01
2019-03-04T07:17:36.740Z,8.06
2019-03-04T07:21:42.046Z,8.17
2019-03-04T07:25:46.312Z,8.22
2019-03-04T07:29:50.856Z,8.35
2019-03-04T07:33:55.598Z,8.47
2019-03-04T07:38:16.048Z,8.64
2019-03-04T07:42:21.630Z,8.82
2019-03-04T07:46:25.832Z,9.04
2019-03-04T07:50:30.102Z,9.26
2019-03-04T07:54:36.663Z,9.49
2019-03-04T07:58:42.522Z,9.72
2019-03-04T08:02:49.494Z,9.95
2019-03-04T08:07:23.035Z,10.15
2019-03-04T08:12:07.247Z,10.36
2019-03-04T08:16:11.996Z,10.58
2019-03-04T08:20:16.377Z,10.77
2019-03-04T08:24:20.612Z,10.98
2019-03-04T08:28:24.842Z,11.21
2019-03-04T08:32:31.043Z,11.45
2019-03-04T08:36:36.647Z,11.87
2019-03-04T08:40:42.432Z,11.87
2019-03-04T08:44:47.646Z,12.05
2019-03-04T08:48:52.987Z,12.23
2019-03-04T08:52:57.640Z,12.45
2019-03-04T08:57:04.158Z,12.88
2019-03-04T09:01:09.781Z,12.88
2019-03-04T09:05:14.985Z,13.10
2019-03-04T09:09:19.189Z,13.26
2019-03-04T09:13:23.810Z,13.32
2019-03-04T09:17:28.103Z,13.48
2019-03-04T09:21:32.282Z,13.55
2019-03-04T09:25:51.978Z,13.62
2019-03-04T09:29:56.896Z,13.68
2019-03-04T09:34:01.634Z,13.75
2019-03-04T09:38:06.902Z,13.85
2019-03-04T09:42:16.669Z,13.99
2019-03-04T09:46:21.695Z,14.12
2019-03-04T09:50:26.184Z,14.25
2019-03-04T09:54:30.720Z,14.35
2019-03-04T09:58:34.917Z,14.38
2019-03-04T10:02:44.519Z,14.42
2019-03-04T10:07:25.940Z,14.46
2019-03-04T10:12:06.740Z,14.51
2019-03-04T10:16:42.165Z,14.56
2019-03-04T10:21:30.274Z,14.62
2019-03-04T10:25:57.919Z,14.68
2019-03-04T10:30:46.321Z,14.66
2019-03-04T10:35:41.413Z,14.66
2019-03-04T10:40:08.873Z,14.65
2019-03-04T10:44:37.858Z,14.60
2019-03-04T10:48:42.292Z,14.60
2019-03-04T10:52:46.976Z,14.62
2019-03-04T10:56:51.251Z,14.68
2019-03-04T11:00:55.433Z,14.75
2019-03-04T11:04:59.674Z,14.86
2019-03-04T11:09:08.312Z,14.98
2019-03-04T11:13:13.178Z,15.08
2019-03-04T11:17:17.504Z,15.18
2019-03-04T11:21:21.792Z,15.27
2019-03-04T11:25:26.056Z,15.33
2019-03-04T11:29:30.318Z,15.43
2019-03-04T11:33:34.573Z,15.54
2019-03-04T11:37:39.088Z,15.61
2019-03-04T11:41:43.326Z,15.69
2019-03-04T11:45:47.508Z,15.77
2019-03-04T11:49:53.445Z,15.85
2019-03-04T11:53:57.888Z,15.93
2019-03-04T11:58:02.172Z,16.00
2019-03-04T12:02:09.921Z,16.06
2019-03-04T12:06:15.103Z,16.15
2019-03-04T12:10:19.700Z,16.30
2019-03-04T12:14:23.929Z,16.45
2019-03-04T12:18:28.151Z,16.55
2019-03-04T12:22:32.402Z,16.65
2019-03-04T12:26:36.635Z,16.72
2019-03-04T12:30:40.965Z,16.81
2019-03-04T12:34:45.692Z,16.89
2019-03-04T12:38:50.066Z,17.00
2019-03-04T12:42:54.412Z,17.07
2019-03-04T12:46:58.653Z,17.10
2019-03-04T12:51:03.906Z,17.10
2019-03-04T12:55:09.118Z,17.11
2019-03-04T12:59:13.297Z,17.18
2019-03-04T13:03:22.725Z,17.23
2019-03-04T13:07:27.384Z,17.29
2019-03-04T13:11:31.609Z,17.39
2019-03-04T13:15:36.144Z,17.46
2019-03-04T13:19:40.411Z,17.54
2019-03-04T13:23:44.608Z,17.55
2019-03-04T13:27:49.967Z,17.62
2019-03-04T13:31:54.993Z,17.71
2019-03-04T13:36:01.398Z,17.79
2019-03-04T13:40:07.273Z,17.82
2019-03-04T13:44:13.023Z,17.85
2019-03-04T13:48:19.316Z,17.90
2019-03-04T13:52:23.516Z,18.04
2019-03-04T13:56:27.723Z,18.09
2019-03-04T14:00:32.582Z,18.13
2019-03-04T14:04:38.553Z,18.14
2019-03-04T14:08:44.677Z,18.18
2019-03-04T14:12:51.495Z,18.17
2019-03-04T14:16:55.746Z,18.20
2019-03-04T14:21:02.249Z,18.22
2019-03-04T14:25:08.827Z,18.23
2019-03-04T14:29:13.547Z,18.20
2019-03-04T14:33:17.759Z,18.18
2019-03-04T14:37:22.021Z,18.21
2019-03-04T14:41:26.612Z,18.21
2019-03-04T14:45:33.713Z,18.19
2019-03-04T14:49:44.684Z,18.20
2019-03-04T14:53:45.986Z,18.21
2019-03-04T14:57:51.445Z,18.23
2019-03-04T15:01:55.775Z,18.25
2019-03-04T15:06:06.771Z,18.31
2019-03-04T15:10:06.837Z,18.35
2019-03-04T15:14:11.203Z,18.35
2019-03-04T15:18:17.230Z,18.39
2019-03-04T15:22:21.653Z,18.42
2019-03-04T15:26:25.899Z,18.47
2019-03-04T15:30:30.130Z,18.48
2019-03-04T15:34:34.355Z,18.49
2019-03-04T15:38:38.552Z,18.47
2019-03-04T15:42:43.394Z,18.44
2019-03-04T15:46:47.665Z,18.40
2019-03-04T15:50:51.946Z,18.32
2019-03-04T15:54:56.154Z,18.27
2019-03-04T15:59:00.438Z,18.22
2019-03-04T16:03:05.436Z,18.26
2019-03-04T16:07:11.829Z,18.27
2019-03-04T16:11:17.873Z,18.31
2019-03-04T16:15:22.394Z,18.35
2019-03-04T16:19:26.712Z,18.41
2019-03-04T16:23:32.960Z,18.38
2019-03-04T16:27:37.682Z,18.27
2019-03-04T16:31:43.363Z,18.08
2019-03-04T16:35:50.116Z,17.85
2019-03-04T16:39:54.624Z,17.52
2019-03-04T16:43:59.223Z,17.22
2019-03-04T16:48:08.771Z,16.97
2019-03-04T16:52:13.948Z,16.76
2019-03-04T16:56:18.718Z,16.57
2019-03-04T17:00:23.520Z,16.52
2019-03-04T17:04:28.760Z,16.34
2019-03-04T17:08:34.145Z,16.14
2019-03-04T17:12:39.939Z,15.95
2019-03-04T17:16:45.051Z,15.69
2019-03-04T17:20:49.276Z,15.37
2019-03-04T17:24:53.480Z,14.99
2019-03-04T17:28:58.673Z,14.63
2019-03-04T17:33:02.967Z,14.38
2019-03-04T17:37:07.277Z,14.13
2019-03-04T17:41:11.582Z,13.91
2019-03-04T17:45:17.758Z,13.71
2019-03-04T17:49:28.632Z,13.56
2019-03-04T17:53:33.143Z,13.36
2019-03-04T17:57:40.143Z,13.16
2019-03-04T18:01:46.995Z,12.99
2019-03-04T18:05:51.324Z,12.73
2019-03-04T18:09:57.553Z,12.60
2019-03-04T18:14:02.396Z,12.42
2019-03-04T18:18:07.130Z,12.35
2019-03-04T18:22:11.568Z,12.26
2019-03-04T18:26:48.607Z,12.17
2019-03-04T18:31:07.577Z,12.12
2019-03-04T18:35:34.680Z,12.04
2019-03-04T18:40:23.966Z,12.01
2019-03-04T18:45:06.808Z,11.96
2019-03-04T18:49:11.172Z,11.95
2019-03-04T18:53:15.490Z,11.95
2019-03-04T18:57:19.961Z,11.98
2019-03-04T19:01:25.316Z,11.98
2019-03-04T19:05:32.132Z,12.00
2019-03-04T19:09:36.478Z,11.98
2019-03-04T19:13:42.254Z,11.98
2019-03-04T19:17:50.131Z,11.99
2019-03-04T19:21:54.414Z,12.00
2019-03-04T19:25:58.658Z,12.00
2019-03-04T19:30:24.060Z,11.99
2019-03-04T19:34:37.215Z,11.98
2019-03-04T19:38:45.798Z,11.97
2019-03-04T19:42:58.174Z,11.97
2019-03-04T19:47:05.521Z,11.99
2019-03-04T19:51:17.947Z,11.93
2019-03-04T19:55:29.331Z,11.94
2019-03-04T19:59:38.246Z,11.95
2019-03-04T20:03:48.738Z,11.95
2019-03-04T20:07:56.249Z,11.97
2019-03-04T20:12:02.859Z,11.97
2019-03-04T20:16:09.471Z,11.96
2019-03-04T20:20:14.722Z,11.98
2019-03-04T20:24:20.460Z,11.95
2019-03-04T20:28:25.110Z,11.95
2019-03-04T20:32:32.392Z,11.96
2019-03-04T20:36:38.005Z,11.98
2019-03-04T20:40:42.272Z,12.00
2019-03-04T20:44:46.706Z,12.01
2019-03-04T20:48:51.179Z,12.02
2019-03-04T20:52:55.489Z,12.02
2019-03-04T20:57:00.124Z,12.04
2019-03-04T21:01:07.833Z,12.02
2019-03-04T21:05:15.867Z,12.08
2019-03-04T21:09:22.833Z,12.13
2019-03-04T21:13:35.206Z,12.13
2019-03-04T21:17:35.318Z,12.14
2019-03-04T21:21:39.752Z,12.15
2019-03-04T21:26:16.128Z,12.18
2019-03-04T21:31:00.570Z,12.19
2019-03-04T21:35:32.379Z,12.22
2019-03-04T21:39:48.693Z,12.19
2019-03-04T21:44:03.128Z,12.22
2019-03-04T21:48:17.590Z,12.21
2019-03-04T21:52:35.240Z,12.19
2019-03-04T21:56:56.342Z,12.19
2019-03-04T22:01:05.651Z,12.21
2019-03-04T22:05:13.108Z,12.21
2019-03-04T22:09:17.618Z,12.15
2019-03-04T22:13:21.891Z,12.15
2019-03-04T22:17:26.488Z,12.11
2019-03-04T22:21:30.813Z,12.09
2019-03-04T22:25:35.241Z,12.07
2019-03-04T22:29:40.281Z,12.07
2019-03-04T22:33:45.758Z,12.02
2019-03-04T22:37:51.948Z,12.02
2019-03-04T22:41:57.384Z,11.91
2019-03-04T22:46:03.598Z,11.91
2019-03-04T22:50:19.245Z,11.93
2019-03-04T22:54:35.738Z,11.90
2019-03-04T22:58:39.990Z,11.84
2019-03-04T23:02:54.681Z,11.81
2019-03-04T23:06:56.622Z,11.81
2019-03-04T23:11:06.148Z,11.78
2019-03-04T23:15:15.010Z,11.65
2019-03-04T23:19:20.690Z,11.65
2019-03-04T23:23:25.556Z,11.56
2019-03-04T23:27:32.797Z,11.51
2019-03-04T23:31:40.956Z,11.42
2019-03-04T23:35:45.417Z,11.42
2019-03-04T23:39:49.642Z,11.38
2019-03-04T23:43:53.997Z,11.33
2019-03-04T23:47:58.199Z,11.26
2019-03-04T23:52:02.447Z,11.24
2019-03-04T23:56:08.458Z,11.21
